PWSweather.com
Personal Weather Stations
Station Observations
THENIOUX
Tomatologue, TheniouxFR 18100

TomatologueTheniouxFR 18100

Lat: 47.2574218, Lon: 1.928950900000018

Elevation: 406

Station Type: davis vue

http://www.meteo.gedfr.co/index.php

High Low Average
Temperature 57.0°F13.9°C 47.8°F8.8°C 51.7°F10.9°C
Dew Point 48.9°F9.4°C 41.9°F5.5°C 45.3°F7.4°C
Winds 13.0 mph 20.9 kmh Calm Calm 7.0 mph SW11.3 kmh SW
Wind Gusts 27.1 mph43.6 kmh -- 15.0 mph24.1 kmh
Humidity 90% 68% 79%
Pressure 30.07 in1018.3 mb 29.70 in1005.8 mb -
Precipitation 0.21 in5.3 mm - -
Hour Temp Dew Point Humidity Winds Wind Gusts Pressure Precip Precip Rate Daily Precip Total
12:01 AM 49.6°F9.8°C 43.7°F6.5°C 80% 0.9 mph SW1.4 kmh SW 2.0 mph3.2 kmh 29.70 in1005.8 mb 0.00 in0.0 mm 0.00 in0.0 mm 0.00 in0.0 mm
12:06 AM 49.8°F9.9°C 43.9°F6.6°C 80% 0.9 mph SW1.4 kmh SW 2.9 mph4.7 kmh 29.70 in1005.8 mb 0.00 in0.0 mm 0.00 in0.0 mm 0.00 in0.0 mm
12:11 AM 50.0°F10.0°C 43.7°F6.5°C 79% 0.9 mph SW1.4 kmh SW 2.9 mph4.7 kmh 29.70 in1005.8 mb 0.00 in0.0 mm 0.00 in0.0 mm 0.00 in0.0 mm
12:16 AM 50.2°F10.1°C 43.9°F6.6°C 79% 0.9 mph NE1.4 kmh NE 2.9 mph4.7 kmh 29.70 in1005.8 mb 0.00 in0.0 mm 0.00 in0.0 mm 0.00 in0.0 mm
12:21 AM 50.4°F10.2°C 43.7°F6.5°C 78% 0.9 mph NE1.4 kmh NE 2.0 mph3.2 kmh 29.70 in1005.8 mb 0.00 in0.0 mm 0.00 in0.0 mm 0.00 in0.0 mm
12:27 AM 50.5°F10.3°C 43.9°F6.6°C 78% 0.9 mph SW1.4 kmh SW 2.9 mph4.7 kmh 29.70 in1005.8 mb 0.00 in0.0 mm 0.00 in0.0 mm 0.00 in0.0 mm
12:32 AM 50.5°F10.3°C 43.9°F6.6°C 78% 0.9 mph SW1.4 kmh SW 2.9 mph4.7 kmh 29.70 in1005.8 mb 0.00 in0.0 mm 0.00 in0.0 mm 0.00 in0.0 mm
12:37 AM 50.4°F10.2°C 43.3°F6.3°C 77% 0.9 mph SW1.4 kmh SW 4.0 mph6.4 kmh 29.70 in1005.8 mb 0.00 in0.0 mm 0.00 in0.0 mm 0.00 in0.0 mm
12:42 AM 50.4°F10.2°C 43.3°F6.3°C 77% 0.9 mph SW1.4 kmh SW 4.9 mph7.9 kmh 29.70 in1005.8 mb 0.00 in0.0 mm 0.00 in0.0 mm 0.00 in0.0 mm
12:47 AM 50.5°F10.3°C 43.5°F6.4°C 77% 2.0 mph SW3.2 kmh SW 4.9 mph7.9 kmh 29.70 in1005.8 mb 0.00 in0.0 mm 0.00 in0.0 mm 0.00 in0.0 mm
12:52 AM 50.7°F10.4°C 43.5°F6.4°C 76% 2.0 mph SSW3.2 kmh SSW 6.0 mph9.7 kmh 29.70 in1005.8 mb 0.00 in0.0 mm 0.00 in0.0 mm 0.00 in0.0 mm
12:57 AM 50.9°F10.5°C 43.5°F6.4°C 76% 2.0 mph SW3.2 kmh SW 6.0 mph9.7 kmh 29.70 in1005.8 mb 0.00 in0.0 mm 0.00 in0.0 mm 0.00 in0.0 mm
01:02 AM 51.1°F10.6°C 43.7°F6.5°C 76% 2.9 mph SW4.7 kmh SW 6.0 mph9.7 kmh 29.70 in1005.8 mb 0.00 in0.0 mm 0.00 in0.0 mm 0.00 in0.0 mm
01:07 AM 51.1°F10.6°C 43.7°F6.5°C 76% 2.9 mph SW4.7 kmh SW 4.9 mph7.9 kmh 29.70 in1005.8 mb 0.00 in0.0 mm 0.00 in0.0 mm 0.00 in0.0 mm
01:12 AM 51.1°F10.6°C 43.7°F6.5°C 76% 2.0 mph SW3.2 kmh SW 4.9 mph7.9 kmh 29.70 in1005.8 mb 0.00 in0.0 mm 0.00 in0.0 mm 0.00 in0.0 mm
01:17 AM 51.1°F10.6°C 43.5°F6.4°C 75% 0.9 mph SW1.4 kmh SW 4.0 mph6.4 kmh 29.70 in1005.8 mb 0.00 in0.0 mm 0.00 in0.0 mm 0.00 in0.0 mm
01:22 AM 50.9°F10.5°C 43.5°F6.4°C 76% 2.0 mph SW3.2 kmh SW 2.9 mph4.7 kmh 29.70 in1005.8 mb 0.00 in0.0 mm 0.00 in0.0 mm 0.00 in0.0 mm
01:27 AM 50.7°F10.4°C 43.5°F6.4°C 76% 0.9 mph SW1.4 kmh SW -- 29.70 in1005.8 mb 0.00 in0.0 mm 0.00 in0.0 mm 0.00 in0.0 mm
01:32 AM 50.5°F10.3°C 43.3°F6.3°C 76% Calm Calm 4.0 mph6.4 kmh 29.70 in1005.8 mb 0.00 in0.0 mm 0.00 in0.0 mm 0.00 in0.0 mm
01:37 AM 50.4°F10.2°C 43.2°F6.2°C 76% 2.0 mph SW3.2 kmh SW 4.0 mph6.4 kmh 29.70 in1005.8 mb 0.00 in0.0 mm 0.00 in0.0 mm 0.00 in0.0 mm
01:43 AM 50.4°F10.2°C 43.2°F6.2°C 76% 2.0 mph SW3.2 kmh SW 4.0 mph6.4 kmh 29.70 in1005.8 mb 0.00 in0.0 mm 0.00 in0.0 mm 0.00 in0.0 mm
01:48 AM 50.2°F10.1°C 43.3°F6.3°C 77% 2.0 mph SW3.2 kmh SW 4.0 mph6.4 kmh 29.70 in1005.8 mb 0.00 in0.0 mm 0.00 in0.0 mm 0.00 in0.0 mm
01:53 AM 50.2°F10.1°C 43.3°F6.3°C 77% 2.0 mph SW3.2 kmh SW 4.9 mph7.9 kmh 29.70 in1005.8 mb 0.00 in0.0 mm 0.00 in0.0 mm 0.00 in0.0 mm
01:58 AM 50.4°F10.2°C 43.3°F6.3°C 77% 2.0 mph WSW3.2 kmh WSW 4.0 mph6.4 kmh 29.70 in1005.8 mb 0.00 in0.0 mm 0.00 in0.0 mm 0.00 in0.0 mm
02:03 AM 50.4°F10.2°C 43.3°F6.3°C 77% 2.9 mph SW4.7 kmh SW 6.0 mph9.7 kmh 29.70 in1005.8 mb 0.00 in0.0 mm 0.00 in0.0 mm 0.00 in0.0 mm
02:08 AM 50.4°F10.2°C 43.3°F6.3°C 77% 2.9 mph SW4.7 kmh SW 4.9 mph7.9 kmh 29.70 in1005.8 mb 0.00 in0.0 mm 0.00 in0.0 mm 0.00 in0.0 mm
02:13 AM 50.5°F10.3°C 43.9°F6.6°C 78% 2.9 mph SW4.7 kmh SW 8.1 mph13.0 kmh 29.70 in1005.8 mb 0.00 in0.0 mm 0.00 in0.0 mm 0.00 in0.0 mm
02:18 AM 51.1°F10.6°C 44.4°F6.9°C 78% 4.0 mph WSW6.4 kmh WSW 10.1 mph16.3 kmh 29.70 in1005.8 mb 0.00 in0.0 mm 0.00 in0.0 mm 0.00 in0.0 mm
02:23 AM 51.6°F10.9°C 44.6°F7.0°C 77% 4.9 mph SW7.9 kmh SW 11.0 mph17.7 kmh 29.70 in1005.8 mb 0.00 in0.0 mm 0.00 in0.0 mm 0.00 in0.0 mm
02:28 AM 51.6°F10.9°C 44.6°F7.0°C 77% 4.9 mph SW7.9 kmh SW 10.1 mph16.3 kmh 29.70 in1005.8 mb 0.00 in0.0 mm 0.00 in0.0 mm 0.00 in0.0 mm
02:33 AM 52.0°F11.1°C 45.3°F7.4°C 78% 4.9 mph S7.9 kmh S 13.0 mph20.9 kmh 29.70 in1005.8 mb 0.00 in0.0 mm 0.00 in0.0 mm 0.00 in0.0 mm
02:38 AM 52.3°F11.3°C 45.3°F7.4°C 77% 6.9 mph SW11.1 kmh SW 16.1 mph25.9 kmh 29.70 in1005.8 mb 0.00 in0.0 mm 0.00 in0.0 mm 0.00 in0.0 mm
02:43 AM 52.3°F11.3°C 45.7°F7.6°C 78% 6.9 mph SSW11.1 kmh SSW 14.1 mph22.7 kmh 29.71 in1006.1 mb 0.00 in0.0 mm 0.00 in0.0 mm 0.00 in0.0 mm
02:48 AM 52.5°F11.4°C 45.9°F7.7°C 78% 6.0 mph SSW9.7 kmh SSW 13.0 mph20.9 kmh 29.71 in1006.1 mb 0.00 in0.0 mm 0.00 in0.0 mm 0.00 in0.0 mm
02:53 AM 52.5°F11.4°C 45.9°F7.7°C 78% 6.9 mph SW11.1 kmh SW 15.0 mph24.1 kmh 29.71 in1006.1 mb 0.00 in0.0 mm 0.00 in0.0 mm 0.00 in0.0 mm
02:58 AM 52.5°F11.4°C 46.2°F7.9°C 79% 6.9 mph SW11.1 kmh SW 14.1 mph22.7 kmh 29.71 in1006.1 mb 0.00 in0.0 mm 0.00 in0.0 mm 0.00 in0.0 mm
03:03 AM 52.3°F11.3°C 46.0°F7.8°C 79% 6.0 mph S9.7 kmh S 15.0 mph24.1 kmh 29.71 in1006.1 mb 0.00 in0.0 mm 0.00 in0.0 mm 0.00 in0.0 mm
03:08 AM 52.3°F11.3°C 46.0°F7.8°C 79% 4.9 mph SW7.9 kmh SW 8.9 mph14.3 kmh 29.71 in1006.1 mb 0.00 in0.0 mm 0.00 in0.0 mm 0.00 in0.0 mm
03:13 AM 52.3°F11.3°C 46.4°F8.0°C 80% 4.9 mph SW7.9 kmh SW 14.1 mph22.7 kmh 29.71 in1006.1 mb 0.00 in0.0 mm 0.00 in0.0 mm 0.00 in0.0 mm
03:18 AM 52.3°F11.3°C 46.4°F8.0°C 80% 6.0 mph SW9.7 kmh SW 11.0 mph17.7 kmh 29.71 in1006.1 mb 0.00 in0.0 mm 0.00 in0.0 mm 0.00 in0.0 mm
03:23 AM 52.3°F11.3°C 46.4°F8.0°C 80% 6.0 mph SW9.7 kmh SW 10.1 mph16.3 kmh 29.71 in1006.1 mb 0.00 in0.0 mm 0.00 in0.0 mm 0.00 in0.0 mm
03:28 AM 52.3°F11.3°C 46.8°F8.2°C 81% 6.0 mph SW9.7 kmh SW 12.1 mph19.5 kmh 29.71 in1006.1 mb 0.00 in0.0 mm 0.00 in0.0 mm 0.00 in0.0 mm
03:33 AM 52.2°F11.2°C 46.8°F8.2°C 82% 6.9 mph SSW11.1 kmh SSW 19.9 mph32.0 kmh 29.71 in1006.1 mb 0.00 in0.0 mm 0.00 in0.0 mm 0.00 in0.0 mm
03:38 AM 52.2°F11.2°C 46.8°F8.2°C 82% 6.0 mph SW9.7 kmh SW 13.0 mph20.9 kmh 29.71 in1006.1 mb 0.00 in0.0 mm 0.00 in0.0 mm 0.00 in0.0 mm
03:43 AM 52.0°F11.1°C 46.9°F8.3°C 83% 6.0 mph SW9.7 kmh SW 17.0 mph27.4 kmh 29.71 in1006.1 mb 0.00 in0.0 mm 0.00 in0.0 mm 0.00 in0.0 mm
03:48 AM 52.0°F11.1°C 46.9°F8.3°C 83% 6.0 mph SW9.7 kmh SW 14.1 mph22.7 kmh 29.71 in1006.1 mb 0.00 in0.0 mm 0.00 in0.0 mm 0.00 in0.0 mm
03:53 AM 52.0°F11.1°C 46.9°F8.3°C 83% 6.0 mph SW9.7 kmh SW 14.1 mph22.7 kmh 29.71 in1006.1 mb 0.00 in0.0 mm 0.00 in0.0 mm 0.00 in0.0 mm
03:58 AM 52.0°F11.1°C 46.9°F8.3°C 83% 6.0 mph SW9.7 kmh SW 16.1 mph25.9 kmh 29.71 in1006.1 mb 0.00 in0.0 mm 0.00 in0.0 mm 0.00 in0.0 mm
04:03 AM 52.0°F11.1°C 46.9°F8.3°C 83% 6.0 mph SW9.7 kmh SW 14.1 mph22.7 kmh 29.70 in1005.8 mb 0.00 in0.0 mm 0.00 in0.0 mm 0.00 in0.0 mm
04:08 AM 51.8°F11.0°C 47.1°F8.4°C 84% 6.0 mph SW9.7 kmh SW 17.9 mph28.8 kmh 29.70 in1005.8 mb 0.00 in0.0 mm 0.00 in0.0 mm 0.00 in0.0 mm
04:13 AM 51.8°F11.0°C 47.1°F8.4°C 84% 6.9 mph SSW11.1 kmh SSW 14.1 mph22.7 kmh 29.71 in1006.1 mb 0.00 in0.0 mm 0.00 in0.0 mm 0.00 in0.0 mm
04:18 AM 51.8°F11.0°C 47.1°F8.4°C 84% 6.9 mph SSW11.1 kmh SSW 21.0 mph33.8 kmh 29.71 in1006.1 mb 0.00 in0.0 mm 0.00 in0.0 mm 0.00 in0.0 mm
04:23 AM 51.6°F10.9°C 46.9°F8.3°C 84% 6.0 mph WSW9.7 kmh WSW 12.1 mph19.5 kmh 29.71 in1006.1 mb 0.00 in0.0 mm 0.00 in0.0 mm 0.00 in0.0 mm
04:28 AM 51.6°F10.9°C 46.9°F8.3°C 84% 6.0 mph SSW9.7 kmh SSW 16.1 mph25.9 kmh 29.71 in1006.1 mb 0.00 in0.0 mm 0.00 in0.0 mm 0.00 in0.0 mm
04:33 AM 51.6°F10.9°C 46.9°F8.3°C 84% 6.0 mph WSW9.7 kmh WSW 15.0 mph24.1 kmh 29.71 in1006.1 mb 0.00 in0.0 mm 0.00 in0.0 mm 0.00 in0.0 mm
04:38 AM 51.6°F10.9°C 46.9°F8.3°C 84% 6.0 mph SW9.7 kmh SW 13.0 mph20.9 kmh 29.71 in1006.1 mb 0.00 in0.0 mm 0.00 in0.0 mm 0.00 in0.0 mm
04:43 AM 51.6°F10.9°C 46.9°F8.3°C 84% 6.9 mph SSW11.1 kmh SSW 14.1 mph22.7 kmh 29.71 in1006.1 mb 0.00 in0.0 mm 0.00 in0.0 mm 0.00 in0.0 mm
04:48 AM 51.6°F10.9°C 46.9°F8.3°C 84% 6.0 mph SW9.7 kmh SW 12.1 mph19.5 kmh 29.72 in1006.4 mb 0.00 in0.0 mm 0.00 in0.0 mm 0.00 in0.0 mm
04:53 AM 51.8°F11.0°C 46.8°F8.2°C 83% 6.0 mph SW9.7 kmh SW 15.0 mph24.1 kmh 29.72 in1006.4 mb 0.00 in0.0 mm 0.00 in0.0 mm 0.00 in0.0 mm
04:58 AM 52.0°F11.1°C 46.9°F8.3°C 83% 6.0 mph WSW9.7 kmh WSW 13.0 mph20.9 kmh 29.72 in1006.4 mb 0.00 in0.0 mm 0.00 in0.0 mm 0.00 in0.0 mm
05:03 AM 52.0°F11.1°C 46.9°F8.3°C 83% 6.0 mph SW9.7 kmh SW 14.1 mph22.7 kmh 29.72 in1006.4 mb 0.00 in0.0 mm 0.00 in0.0 mm 0.00 in0.0 mm
05:08 AM 52.0°F11.1°C 46.9°F8.3°C 83% 6.0 mph SW9.7 kmh SW 17.9 mph28.8 kmh 29.72 in1006.4 mb 0.00 in0.0 mm 0.00 in0.0 mm 0.00 in0.0 mm
05:13 AM 52.0°F11.1°C 46.9°F8.3°C 83% 6.9 mph SSW11.1 kmh SSW 17.9 mph28.8 kmh 29.72 in1006.4 mb 0.00 in0.0 mm 0.00 in0.0 mm 0.00 in0.0 mm
05:18 AM 52.0°F11.1°C 46.9°F8.3°C 83% 6.9 mph SSW11.1 kmh SSW 13.0 mph20.9 kmh 29.72 in1006.4 mb 0.00 in0.0 mm 0.00 in0.0 mm 0.00 in0.0 mm
05:23 AM 52.0°F11.1°C 46.9°F8.3°C 83% 6.0 mph SW9.7 kmh SW 15.0 mph24.1 kmh 29.72 in1006.4 mb 0.00 in0.0 mm 0.00 in0.0 mm 0.00 in0.0 mm
05:28 AM 52.0°F11.1°C 46.6°F8.1°C 82% 6.9 mph SSW11.1 kmh SSW 16.1 mph25.9 kmh 29.72 in1006.4 mb 0.00 in0.0 mm 0.00 in0.0 mm 0.00 in0.0 mm
05:33 AM 52.0°F11.1°C 46.6°F8.1°C 82% 6.0 mph SW9.7 kmh SW 15.0 mph24.1 kmh 29.72 in1006.4 mb 0.00 in0.0 mm 0.00 in0.0 mm 0.00 in0.0 mm
05:38 AM 52.0°F11.1°C 46.6°F8.1°C 82% 6.9 mph SW11.1 kmh SW 19.9 mph32.0 kmh 29.72 in1006.4 mb 0.00 in0.0 mm 0.00 in0.0 mm 0.00 in0.0 mm
05:43 AM 52.0°F11.1°C 46.6°F8.1°C 82% 6.9 mph SW11.1 kmh SW 13.0 mph20.9 kmh 29.73 in1006.8 mb 0.00 in0.0 mm 0.00 in0.0 mm 0.00 in0.0 mm
05:48 AM 52.0°F11.1°C 46.6°F8.1°C 82% 6.9 mph S11.1 kmh S 16.1 mph25.9 kmh 29.73 in1006.8 mb 0.00 in0.0 mm 0.00 in0.0 mm 0.00 in0.0 mm
05:53 AM 52.0°F11.1°C 46.6°F8.1°C 82% 8.1 mph SSW13.0 kmh SSW 23.0 mph37.0 kmh 29.73 in1006.8 mb 0.00 in0.0 mm 0.00 in0.0 mm 0.00 in0.0 mm
05:58 AM 52.0°F11.1°C 46.6°F8.1°C 82% 8.9 mph WSW14.3 kmh WSW 23.0 mph37.0 kmh 29.73 in1006.8 mb 0.00 in0.0 mm 0.00 in0.0 mm 0.00 in0.0 mm
06:03 AM 52.0°F11.1°C 46.6°F8.1°C 82% 8.1 mph SW13.0 kmh SW 16.1 mph25.9 kmh 29.73 in1006.8 mb 0.00 in0.0 mm 0.00 in0.0 mm 0.00 in0.0 mm
06:09 AM 52.0°F11.1°C 46.6°F8.1°C 82% 6.9 mph W11.1 kmh W 17.9 mph28.8 kmh 29.74 in1007.1 mb 0.00 in0.0 mm 0.00 in0.0 mm 0.00 in0.0 mm
06:14 AM 52.0°F11.1°C 46.6°F8.1°C 82% 8.1 mph SSW13.0 kmh SSW 14.1 mph22.7 kmh 29.74 in1007.1 mb 0.00 in0.0 mm 0.00 in0.0 mm 0.00 in0.0 mm
06:19 AM 52.0°F11.1°C 46.6°F8.1°C 82% 6.9 mph SW11.1 kmh SW 16.1 mph25.9 kmh 29.74 in1007.1 mb 0.00 in0.0 mm 0.00 in0.0 mm 0.00 in0.0 mm
06:24 AM 51.6°F10.9°C 46.2°F7.9°C 82% 6.9 mph SSW11.1 kmh SSW 14.1 mph22.7 kmh 29.74 in1007.1 mb 0.00 in0.0 mm 0.00 in0.0 mm 0.00 in0.0 mm
06:29 AM 51.6°F10.9°C 46.6°F8.1°C 83% 6.9 mph SW11.1 kmh SW 14.1 mph22.7 kmh 29.74 in1007.1 mb 0.00 in0.0 mm 0.00 in0.0 mm 0.00 in0.0 mm
06:34 AM 51.4°F10.8°C 46.4°F8.0°C 83% 6.0 mph SW9.7 kmh SW 15.0 mph24.1 kmh 29.75 in1007.5 mb 0.00 in0.0 mm 0.00 in0.0 mm 0.00 in0.0 mm
06:39 AM 51.6°F10.9°C 46.6°F8.1°C 83% 6.9 mph SSW11.1 kmh SSW 17.0 mph27.4 kmh 29.74 in1007.1 mb 0.00 in0.0 mm 0.00 in0.0 mm 0.00 in0.0 mm
06:44 AM 51.6°F10.9°C 46.6°F8.1°C 83% 8.9 mph SW14.3 kmh SW 19.9 mph32.0 kmh 29.75 in1007.5 mb 0.00 in0.0 mm 0.00 in0.0 mm 0.00 in0.0 mm
06:49 AM 51.6°F10.9°C 46.6°F8.1°C 83% 10.1 mph SSW16.3 kmh SSW 16.1 mph25.9 kmh 29.75 in1007.5 mb 0.00 in0.0 mm 0.00 in0.0 mm 0.00 in0.0 mm
06:54 AM 51.6°F10.9°C 46.6°F8.1°C 83% 8.1 mph SSW13.0 kmh SSW 15.0 mph24.1 kmh 29.75 in1007.5 mb 0.00 in0.0 mm 0.00 in0.0 mm 0.00 in0.0 mm
06:59 AM 51.6°F10.9°C 46.6°F8.1°C 83% 6.9 mph SSW11.1 kmh SSW 13.0 mph20.9 kmh 29.75 in1007.5 mb 0.00 in0.0 mm 0.00 in0.0 mm 0.00 in0.0 mm
07:04 AM 51.6°F10.9°C 46.6°F8.1°C 83% 6.9 mph SW11.1 kmh SW 19.0 mph30.6 kmh 29.75 in1007.5 mb 0.00 in0.0 mm 0.00 in0.0 mm 0.00 in0.0 mm
07:09 AM 51.6°F10.9°C 46.6°F8.1°C 83% 6.9 mph SW11.1 kmh SW 19.0 mph30.6 kmh 29.75 in1007.5 mb 0.00 in0.0 mm 0.00 in0.0 mm 0.00 in0.0 mm
07:14 AM 51.8°F11.0°C 46.4°F8.0°C 82% 6.0 mph SSW9.7 kmh SSW 16.1 mph25.9 kmh 29.75 in1007.5 mb 0.00 in0.0 mm 0.00 in0.0 mm 0.00 in0.0 mm
07:19 AM 51.8°F11.0°C 46.4°F8.0°C 82% 6.0 mph SW9.7 kmh SW 16.1 mph25.9 kmh 29.76 in1007.8 mb 0.00 in0.0 mm 0.00 in0.0 mm 0.00 in0.0 mm
07:24 AM 52.0°F11.1°C 46.6°F8.1°C 82% 6.9 mph SSW11.1 kmh SSW 17.0 mph27.4 kmh 29.76 in1007.8 mb 0.00 in0.0 mm 0.00 in0.0 mm 0.00 in0.0 mm
07:29 AM 52.0°F11.1°C 46.4°F8.0°C 81% 8.1 mph SW13.0 kmh SW 17.0 mph27.4 kmh 29.76 in1007.8 mb 0.00 in0.0 mm 0.00 in0.0 mm 0.00 in0.0 mm
07:34 AM 52.2°F11.2°C 46.6°F8.1°C 81% 8.1 mph SSW13.0 kmh SSW 19.0 mph30.6 kmh 29.77 in1008.1 mb 0.00 in0.0 mm 0.00 in0.0 mm 0.00 in0.0 mm
07:39 AM 52.2°F11.2°C 46.2°F7.9°C 80% 8.9 mph SW14.3 kmh SW 16.1 mph25.9 kmh 29.77 in1008.1 mb 0.00 in0.0 mm 0.00 in0.0 mm 0.00 in0.0 mm
07:44 AM 52.2°F11.2°C 46.2°F7.9°C 80% 8.1 mph SW13.0 kmh SW 19.0 mph30.6 kmh 29.77 in1008.1 mb 0.00 in0.0 mm 0.00 in0.0 mm 0.00 in0.0 mm
07:49 AM 52.2°F11.2°C 45.9°F7.7°C 79% 8.9 mph WSW14.3 kmh WSW 19.0 mph30.6 kmh 29.78 in1008.5 mb 0.00 in0.0 mm 0.00 in0.0 mm 0.00 in0.0 mm
07:54 AM 52.2°F11.2°C 45.9°F7.7°C 79% 8.9 mph SW14.3 kmh SW 19.9 mph32.0 kmh 29.78 in1008.5 mb 0.00 in0.0 mm 0.00 in0.0 mm 0.00 in0.0 mm
07:59 AM 52.3°F11.3°C 46.0°F7.8°C 79% 8.9 mph S14.3 kmh S 21.0 mph33.8 kmh 29.78 in1008.5 mb 0.00 in0.0 mm 0.00 in0.0 mm 0.00 in0.0 mm
08:04 AM 52.3°F11.3°C 45.7°F7.6°C 78% 8.9 mph SW14.3 kmh SW 15.0 mph24.1 kmh 29.78 in1008.5 mb 0.00 in0.0 mm 0.00 in0.0 mm 0.00 in0.0 mm
08:09 AM 52.3°F11.3°C 45.7°F7.6°C 78% 8.1 mph S13.0 kmh S 16.1 mph25.9 kmh 29.78 in1008.5 mb 0.00 in0.0 mm 0.00 in0.0 mm 0.00 in0.0 mm
08:14 AM 52.3°F11.3°C 46.0°F7.8°C 79% 8.1 mph SW13.0 kmh SW 15.0 mph24.1 kmh 29.78 in1008.5 mb 0.00 in0.0 mm 0.00 in0.0 mm 0.00 in0.0 mm
08:19 AM 52.3°F11.3°C 46.0°F7.8°C 79% 6.9 mph SW11.1 kmh SW 13.0 mph20.9 kmh 29.78 in1008.5 mb 0.00 in0.0 mm 0.00 in0.0 mm 0.00 in0.0 mm
08:24 AM 52.3°F11.3°C 46.0°F7.8°C 79% 6.9 mph SW11.1 kmh SW 17.9 mph28.8 kmh 29.79 in1008.8 mb 0.00 in0.0 mm 0.00 in0.0 mm 0.00 in0.0 mm
08:29 AM 52.3°F11.3°C 46.0°F7.8°C 79% 6.9 mph SW11.1 kmh SW 14.1 mph22.7 kmh 29.79 in1008.8 mb 0.00 in0.0 mm 0.00 in0.0 mm 0.00 in0.0 mm
08:34 AM 52.3°F11.3°C 46.0°F7.8°C 79% 8.1 mph S13.0 kmh S 19.9 mph32.0 kmh 29.79 in1008.8 mb 0.00 in0.0 mm 0.00 in0.0 mm 0.00 in0.0 mm
08:39 AM 52.5°F11.4°C 46.2°F7.9°C 79% 8.1 mph SW13.0 kmh SW 17.9 mph28.8 kmh 29.79 in1008.8 mb 0.00 in0.0 mm 0.00 in0.0 mm 0.00 in0.0 mm
08:44 AM 52.5°F11.4°C 46.2°F7.9°C 79% 6.9 mph SW11.1 kmh SW 16.1 mph25.9 kmh 29.80 in1009.1 mb 0.00 in0.0 mm 0.00 in0.0 mm 0.00 in0.0 mm
08:49 AM 52.5°F11.4°C 46.2°F7.9°C 79% 6.9 mph SW11.1 kmh SW 15.0 mph24.1 kmh 29.80 in1009.1 mb 0.00 in0.0 mm 0.00 in0.0 mm 0.00 in0.0 mm
08:54 AM 52.5°F11.4°C 46.2°F7.9°C 79% 6.0 mph SW9.7 kmh SW 14.1 mph22.7 kmh 29.80 in1009.1 mb 0.00 in0.0 mm 0.00 in0.0 mm 0.00 in0.0 mm
08:59 AM 52.5°F11.4°C 46.2°F7.9°C 79% 6.9 mph SW11.1 kmh SW 21.0 mph33.8 kmh 29.80 in1009.1 mb 0.00 in0.0 mm 0.00 in0.0 mm 0.00 in0.0 mm
09:04 AM 52.5°F11.4°C 46.2°F7.9°C 79% 8.1 mph S13.0 kmh S 19.0 mph30.6 kmh 29.81 in1009.5 mb 0.00 in0.0 mm 0.00 in0.0 mm 0.00 in0.0 mm
09:09 AM 52.5°F11.4°C 46.2°F7.9°C 79% 8.9 mph SW14.3 kmh SW 19.9 mph32.0 kmh 29.82 in1009.8 mb 0.00 in0.0 mm 0.00 in0.0 mm 0.00 in0.0 mm
09:14 AM 52.5°F11.4°C 46.2°F7.9°C 79% 8.9 mph SW14.3 kmh SW 19.0 mph30.6 kmh 29.82 in1009.8 mb 0.00 in0.0 mm 0.00 in0.0 mm 0.00 in0.0 mm
09:19 AM 52.5°F11.4°C 46.6°F8.1°C 80% 8.1 mph SW13.0 kmh SW 15.0 mph24.1 kmh 29.82 in1009.8 mb 0.00 in0.0 mm 0.00 in0.0 mm 0.00 in0.0 mm
09:24 AM 52.5°F11.4°C 46.6°F8.1°C 80% 8.1 mph SW13.0 kmh SW 14.1 mph22.7 kmh 29.82 in1009.8 mb 0.00 in0.0 mm 0.00 in0.0 mm 0.00 in0.0 mm
09:29 AM 52.5°F11.4°C 46.6°F8.1°C 80% 6.9 mph SW11.1 kmh SW 14.1 mph22.7 kmh 29.82 in1009.8 mb 0.00 in0.0 mm 0.00 in0.0 mm 0.00 in0.0 mm
09:34 AM 52.5°F11.4°C 46.6°F8.1°C 80% 6.9 mph S11.1 kmh S 17.0 mph27.4 kmh 29.83 in1010.2 mb 0.00 in0.0 mm 0.00 in0.0 mm 0.00 in0.0 mm
09:39 AM 52.5°F11.4°C 46.6°F8.1°C 80% 8.1 mph SW13.0 kmh SW 19.0 mph30.6 kmh 29.82 in1009.8 mb 0.00 in0.0 mm 0.00 in0.0 mm 0.00 in0.0 mm
09:44 AM 52.5°F11.4°C 46.6°F8.1°C 80% 8.1 mph SW13.0 kmh SW 17.0 mph27.4 kmh 29.83 in1010.2 mb 0.00 in0.0 mm 0.00 in0.0 mm 0.00 in0.0 mm
09:49 AM 52.9°F11.6°C 46.6°F8.1°C 79% 8.1 mph S13.0 kmh S 17.9 mph28.8 kmh 29.83 in1010.2 mb 0.00 in0.0 mm 0.00 in0.0 mm 0.00 in0.0 mm
09:54 AM 53.1°F11.7°C 46.8°F8.2°C 79% 6.9 mph SW11.1 kmh SW 14.1 mph22.7 kmh 29.83 in1010.2 mb 0.00 in0.0 mm 0.00 in0.0 mm 0.00 in0.0 mm
11:14 AM 55.2°F12.9°C 46.8°F8.2°C 73% - N N -- -- 0.00 in0.0 mm 0.00 in0.0 mm 0.00 in0.0 mm
11:19 AM 55.2°F12.9°C 46.0°F7.8°C 71% 11.0 mph WSW17.7 kmh WSW 21.0 mph33.8 kmh 29.85 in1010.8 mb 0.00 in0.0 mm 0.00 in0.0 mm 0.00 in0.0 mm
11:24 AM 54.9°F12.7°C 46.0°F7.8°C 72% 11.0 mph SSW17.7 kmh SSW 19.9 mph32.0 kmh 29.85 in1010.8 mb 0.00 in0.0 mm 0.00 in0.0 mm 0.00 in0.0 mm
11:29 AM 54.9°F12.7°C 46.4°F8.0°C 73% 10.1 mph SW16.3 kmh SW 19.0 mph30.6 kmh 29.85 in1010.8 mb 0.00 in0.0 mm 0.00 in0.0 mm 0.00 in0.0 mm
11:34 AM 55.0°F12.8°C 47.3°F8.5°C 75% 8.9 mph SW14.3 kmh SW 17.0 mph27.4 kmh 29.85 in1010.8 mb 0.00 in0.0 mm 0.00 in0.0 mm 0.00 in0.0 mm
11:39 AM 55.6°F13.1°C 47.1°F8.4°C 73% 8.9 mph SW14.3 kmh SW 23.9 mph38.5 kmh 29.85 in1010.8 mb 0.00 in0.0 mm 0.00 in0.0 mm 0.00 in0.0 mm
11:44 AM 55.8°F13.2°C 47.3°F8.5°C 73% 11.0 mph SW17.7 kmh SW 23.9 mph38.5 kmh 29.85 in1010.8 mb 0.00 in0.0 mm 0.00 in0.0 mm 0.00 in0.0 mm
11:49 AM 55.8°F13.2°C 47.7°F8.7°C 74% 11.0 mph SW17.7 kmh SW 21.9 mph35.2 kmh 29.86 in1011.2 mb 0.00 in0.0 mm 0.00 in0.0 mm 0.00 in0.0 mm
11:54 AM 55.9°F13.3°C 47.8°F8.8°C 74% 10.1 mph SW16.3 kmh SW 15.0 mph24.1 kmh 29.86 in1011.2 mb 0.00 in0.0 mm 0.00 in0.0 mm 0.00 in0.0 mm
11:59 AM 55.9°F13.3°C 47.5°F8.6°C 73% 8.9 mph SW14.3 kmh SW 16.1 mph25.9 kmh 29.86 in1011.2 mb 0.00 in0.0 mm 0.00 in0.0 mm 0.00 in0.0 mm
12:04 PM 55.9°F13.3°C 47.8°F8.8°C 74% 8.1 mph SW13.0 kmh SW 15.0 mph24.1 kmh 29.86 in1011.2 mb 0.00 in0.0 mm 0.00 in0.0 mm 0.00 in0.0 mm
12:09 PM 55.9°F13.3°C 47.1°F8.4°C 72% 8.9 mph WSW14.3 kmh WSW 17.9 mph28.8 kmh 29.86 in1011.2 mb 0.00 in0.0 mm 0.00 in0.0 mm 0.00 in0.0 mm
12:14 PM 55.6°F13.1°C 47.8°F8.8°C 75% 8.9 mph SW14.3 kmh SW 19.0 mph30.6 kmh 29.86 in1011.2 mb 0.00 in0.0 mm 0.00 in0.0 mm 0.00 in0.0 mm
12:19 PM 55.8°F13.2°C 48.4°F9.1°C 76% 8.1 mph SW13.0 kmh SW 14.1 mph22.7 kmh 29.86 in1011.2 mb 0.00 in0.0 mm 0.00 in0.0 mm 0.00 in0.0 mm
12:24 PM 56.1°F13.4°C 48.4°F9.1°C 75% 6.9 mph SW11.1 kmh SW 17.0 mph27.4 kmh 29.86 in1011.2 mb 0.00 in0.0 mm 0.00 in0.0 mm 0.00 in0.0 mm
12:29 PM 56.1°F13.4°C 47.7°F8.7°C 73% 8.1 mph SW13.0 kmh SW 15.0 mph24.1 kmh 29.86 in1011.2 mb 0.00 in0.0 mm 0.00 in0.0 mm 0.00 in0.0 mm
12:35 PM 56.5°F13.6°C 47.5°F8.6°C 72% 8.9 mph SE14.3 kmh SE 25.9 mph41.7 kmh 29.86 in1011.2 mb 0.00 in0.0 mm 0.00 in0.0 mm 0.00 in0.0 mm
12:40 PM 56.1°F13.4°C 46.8°F8.2°C 71% 10.1 mph S16.3 kmh S 19.0 mph30.6 kmh 29.87 in1011.5 mb 0.00 in0.0 mm 0.00 in0.0 mm 0.00 in0.0 mm
12:45 PM 55.8°F13.2°C 47.3°F8.5°C 73% 10.1 mph SW16.3 kmh SW 19.0 mph30.6 kmh 29.87 in1011.5 mb 0.00 in0.0 mm 0.00 in0.0 mm 0.00 in0.0 mm
12:50 PM 56.1°F13.4°C 47.3°F8.5°C 72% 8.9 mph SW14.3 kmh SW 13.0 mph20.9 kmh 29.87 in1011.5 mb 0.00 in0.0 mm 0.00 in0.0 mm 0.00 in0.0 mm
12:55 PM 56.3°F13.5°C 48.2°F9.0°C 74% 8.1 mph SW13.0 kmh SW 16.1 mph25.9 kmh 29.87 in1011.5 mb 0.00 in0.0 mm 0.00 in0.0 mm 0.00 in0.0 mm
01:00 PM 56.8°F13.8°C 47.5°F8.6°C 71% 8.1 mph SSW13.0 kmh SSW 25.9 mph41.7 kmh 29.87 in1011.5 mb 0.00 in0.0 mm 0.00 in0.0 mm 0.00 in0.0 mm
01:05 PM 57.0°F13.9°C 47.3°F8.5°C 70% 8.1 mph SSW13.0 kmh SSW 25.9 mph41.7 kmh 29.87 in1011.5 mb 0.00 in0.0 mm 0.00 in0.0 mm 0.00 in0.0 mm
01:10 PM 56.8°F13.8°C 46.4°F8.0°C 68% 8.9 mph SW14.3 kmh SW 16.1 mph25.9 kmh 29.87 in1011.5 mb 0.00 in0.0 mm 0.00 in0.0 mm 0.00 in0.0 mm
01:15 PM 56.5°F13.6°C 46.4°F8.0°C 69% 10.1 mph SW16.3 kmh SW 21.0 mph33.8 kmh 29.87 in1011.5 mb 0.00 in0.0 mm 0.00 in0.0 mm 0.00 in0.0 mm
02:25 PM 52.9°F11.6°C 45.1°F7.3°C 75% 10.1 mph SW16.3 kmh SW 19.9 mph32.0 kmh 29.89 in1012.2 mb 0.01 in0.3 mm 0.06 in1.5 mm 0.01 in0.3 mm
02:30 PM 52.5°F11.4°C 45.1°F7.3°C 76% 8.1 mph SW13.0 kmh SW 16.1 mph25.9 kmh 29.89 in1012.2 mb 0.01 in0.3 mm 0.00 in0.0 mm 0.01 in0.3 mm
02:35 PM 52.3°F11.3°C 46.0°F7.8°C 79% 6.0 mph WSW9.7 kmh WSW 12.1 mph19.5 kmh 29.89 in1012.2 mb 0.01 in0.3 mm 0.00 in0.0 mm 0.01 in0.3 mm
02:40 PM 52.2°F11.2°C 45.9°F7.7°C 79% 6.0 mph WSW9.7 kmh WSW 15.0 mph24.1 kmh 29.88 in1011.9 mb 0.01 in0.3 mm 0.00 in0.0 mm 0.01 in0.3 mm
02:45 PM 52.2°F11.2°C 46.6°F8.1°C 81% 6.0 mph SW9.7 kmh SW 11.0 mph17.7 kmh 29.88 in1011.9 mb 0.01 in0.3 mm 0.00 in0.0 mm 0.01 in0.3 mm
02:50 PM 52.2°F11.2°C 47.1°F8.4°C 83% 4.9 mph SW7.9 kmh SW 13.0 mph20.9 kmh 29.89 in1012.2 mb 0.03 in0.8 mm 0.24 in6.1 mm 0.03 in0.8 mm
02:55 PM 51.4°F10.8°C 47.5°F8.6°C 86% 4.9 mph SW7.9 kmh SW 10.1 mph16.3 kmh 29.89 in1012.2 mb 0.07 in1.8 mm 0.48 in12.2 mm 0.07 in1.8 mm
03:00 PM 51.4°F10.8°C 48.0°F8.9°C 88% 4.9 mph SW7.9 kmh SW 13.0 mph20.9 kmh 29.89 in1012.2 mb 0.07 in1.8 mm 0.00 in0.0 mm 0.07 in1.8 mm
03:05 PM 51.4°F10.8°C 48.4°F9.1°C 89% 4.9 mph SW7.9 kmh SW 12.1 mph19.5 kmh 29.89 in1012.2 mb 0.07 in1.8 mm 0.00 in0.0 mm 0.07 in1.8 mm
03:10 PM 52.0°F11.1°C 48.9°F9.4°C 89% 4.0 mph WSW6.4 kmh WSW 13.0 mph20.9 kmh 29.89 in1012.2 mb 0.06 in1.5 mm 0.00 in0.0 mm 0.07 in1.8 mm
03:15 PM 52.2°F11.2°C 48.7°F9.3°C 88% 4.0 mph SW6.4 kmh SW 8.9 mph14.3 kmh 29.89 in1012.2 mb 0.06 in1.5 mm 0.00 in0.0 mm 0.07 in1.8 mm
03:20 PM 52.0°F11.1°C 47.7°F8.7°C 85% 4.9 mph WSW7.9 kmh WSW 21.9 mph35.2 kmh 29.92 in1013.2 mb 0.07 in1.8 mm 0.12 in3.0 mm 0.12 in3.0 mm
03:25 PM 50.4°F10.2°C 46.4°F8.0°C 86% 6.9 mph SSW11.1 kmh SSW 17.9 mph28.8 kmh 29.91 in1012.9 mb 0.19 in4.8 mm 1.44 in36.6 mm 0.20 in5.1 mm
03:30 PM 49.5°F9.7°C 46.0°F7.8°C 88% 6.9 mph SW11.1 kmh SW 15.0 mph24.1 kmh 29.91 in1012.9 mb 0.19 in4.8 mm 0.00 in0.0 mm 0.20 in5.1 mm
03:35 PM 49.5°F9.7°C 46.6°F8.1°C 90% 6.0 mph SW9.7 kmh SW 11.0 mph17.7 kmh 29.91 in1012.9 mb 0.19 in4.8 mm 0.00 in0.0 mm 0.20 in5.1 mm
03:40 PM 50.0°F10.0°C 47.1°F8.4°C 90% 4.9 mph SW7.9 kmh SW 14.1 mph22.7 kmh 29.91 in1012.9 mb 0.19 in4.8 mm 0.00 in0.0 mm 0.20 in5.1 mm
03:45 PM 50.5°F10.3°C 47.7°F8.7°C 90% 4.9 mph SW7.9 kmh SW 14.1 mph22.7 kmh 29.91 in1012.9 mb 0.19 in4.8 mm 0.00 in0.0 mm 0.20 in5.1 mm
03:50 PM 51.3°F10.7°C 48.4°F9.1°C 90% 6.0 mph SW9.7 kmh SW 15.0 mph24.1 kmh 29.91 in1012.9 mb 0.17 in4.3 mm 0.00 in0.0 mm 0.20 in5.1 mm
03:55 PM 51.6°F10.9°C 48.6°F9.2°C 89% 6.9 mph SW11.1 kmh SW 17.0 mph27.4 kmh 29.91 in1012.9 mb 0.13 in3.3 mm 0.00 in0.0 mm 0.20 in5.1 mm
04:00 PM 52.0°F11.1°C 48.6°F9.2°C 88% 6.9 mph SW11.1 kmh SW 14.1 mph22.7 kmh 29.91 in1012.9 mb 0.13 in3.3 mm 0.00 in0.0 mm 0.20 in5.1 mm
04:05 PM 52.0°F11.1°C 48.2°F9.0°C 87% 6.9 mph WSW11.1 kmh WSW 14.1 mph22.7 kmh 29.91 in1012.9 mb 0.13 in3.3 mm 0.00 in0.0 mm 0.20 in5.1 mm
04:10 PM 52.2°F11.2°C 48.4°F9.1°C 87% 6.9 mph SW11.1 kmh SW 17.9 mph28.8 kmh 29.91 in1012.9 mb 0.13 in3.3 mm 0.00 in0.0 mm 0.20 in5.1 mm
04:15 PM 52.3°F11.3°C 48.2°F9.0°C 86% 8.1 mph WSW13.0 kmh WSW 17.0 mph27.4 kmh 29.91 in1012.9 mb 0.13 in3.3 mm 0.00 in0.0 mm 0.20 in5.1 mm
04:20 PM 53.1°F11.7°C 48.7°F9.3°C 85% 8.1 mph SW13.0 kmh SW 17.0 mph27.4 kmh 29.91 in1012.9 mb 0.12 in3.0 mm 0.00 in0.0 mm 0.20 in5.1 mm
04:25 PM 53.4°F11.9°C 48.4°F9.1°C 83% 8.1 mph WSW13.0 kmh WSW 16.1 mph25.9 kmh 29.92 in1013.2 mb 0.00 in0.0 mm 0.00 in0.0 mm 0.20 in5.1 mm
04:30 PM 53.6°F12.0°C 47.8°F8.8°C 81% 8.1 mph SW13.0 kmh SW 13.0 mph20.9 kmh 29.92 in1013.2 mb 0.00 in0.0 mm 0.00 in0.0 mm 0.20 in5.1 mm
04:35 PM 53.8°F12.1°C 47.8°F8.8°C 80% 8.9 mph SW14.3 kmh SW 19.0 mph30.6 kmh 29.92 in1013.2 mb 0.00 in0.0 mm 0.00 in0.0 mm 0.20 in5.1 mm
04:40 PM 54.0°F12.2°C 47.7°F8.7°C 79% 10.1 mph SW16.3 kmh SW 19.9 mph32.0 kmh 29.92 in1013.2 mb 0.00 in0.0 mm 0.00 in0.0 mm 0.20 in5.1 mm
04:45 PM 54.0°F12.2°C 47.3°F8.5°C 78% 10.1 mph SW16.3 kmh SW 19.0 mph30.6 kmh 29.93 in1013.5 mb 0.00 in0.0 mm 0.00 in0.0 mm 0.20 in5.1 mm
04:50 PM 53.8°F12.1°C 46.8°F8.2°C 77% 11.0 mph SW17.7 kmh SW 19.0 mph30.6 kmh 29.93 in1013.5 mb 0.00 in0.0 mm 0.00 in0.0 mm 0.20 in5.1 mm
04:55 PM 53.4°F11.9°C 46.0°F7.8°C 76% 8.9 mph SW14.3 kmh SW 17.0 mph27.4 kmh 29.93 in1013.5 mb 0.00 in0.0 mm 0.00 in0.0 mm 0.20 in5.1 mm
05:00 PM 53.2°F11.8°C 46.6°F8.1°C 78% 8.1 mph WSW13.0 kmh WSW 16.1 mph25.9 kmh 29.93 in1013.5 mb 0.00 in0.0 mm 0.00 in0.0 mm 0.20 in5.1 mm
05:05 PM 53.2°F11.8°C 46.6°F8.1°C 78% 8.1 mph SSW13.0 kmh SSW 16.1 mph25.9 kmh 29.93 in1013.5 mb 0.00 in0.0 mm 0.00 in0.0 mm 0.20 in5.1 mm
05:10 PM 53.2°F11.8°C 46.2°F7.9°C 77% 8.1 mph S13.0 kmh S 17.9 mph28.8 kmh 29.94 in1013.9 mb 0.00 in0.0 mm 0.00 in0.0 mm 0.20 in5.1 mm
05:15 PM 52.5°F11.4°C 45.9°F7.7°C 78% 11.0 mph SSW17.7 kmh SSW 23.0 mph37.0 kmh 29.94 in1013.9 mb 0.00 in0.0 mm 0.00 in0.0 mm 0.20 in5.1 mm
05:20 PM 52.2°F11.2°C 45.5°F7.5°C 78% 11.0 mph SSW17.7 kmh SSW 15.0 mph24.1 kmh 29.94 in1013.9 mb 0.00 in0.0 mm 0.00 in0.0 mm 0.20 in5.1 mm
05:25 PM 52.2°F11.2°C 44.8°F7.1°C 76% 8.9 mph SW14.3 kmh SW 25.9 mph41.7 kmh 29.94 in1013.9 mb 0.00 in0.0 mm 0.00 in0.0 mm 0.20 in5.1 mm
05:30 PM 52.3°F11.3°C 44.6°F7.0°C 75% 10.1 mph SW16.3 kmh SW 17.9 mph28.8 kmh 29.95 in1014.2 mb 0.00 in0.0 mm 0.00 in0.0 mm 0.20 in5.1 mm
05:35 PM 52.5°F11.4°C 44.8°F7.1°C 75% 8.9 mph SW14.3 kmh SW 21.0 mph33.8 kmh 29.95 in1014.2 mb 0.00 in0.0 mm 0.00 in0.0 mm 0.20 in5.1 mm
05:40 PM 52.5°F11.4°C 44.4°F6.9°C 74% 8.9 mph WSW14.3 kmh WSW 21.0 mph33.8 kmh 29.95 in1014.2 mb 0.00 in0.0 mm 0.00 in0.0 mm 0.20 in5.1 mm
05:45 PM 52.9°F11.6°C 44.4°F6.9°C 73% 10.1 mph SW16.3 kmh SW 21.0 mph33.8 kmh 29.96 in1014.6 mb 0.00 in0.0 mm 0.00 in0.0 mm 0.20 in5.1 mm
05:50 PM 52.9°F11.6°C 43.7°F6.5°C 71% 11.0 mph SW17.7 kmh SW 27.1 mph43.6 kmh 29.96 in1014.6 mb 0.00 in0.0 mm 0.00 in0.0 mm 0.20 in5.1 mm
05:55 PM 52.7°F11.5°C 43.2°F6.2°C 70% 13.0 mph S20.9 kmh S 21.0 mph33.8 kmh 29.96 in1014.6 mb 0.00 in0.0 mm 0.00 in0.0 mm 0.20 in5.1 mm
06:00 PM 52.5°F11.4°C 43.7°F6.5°C 72% 13.0 mph SSW20.9 kmh SSW 23.0 mph37.0 kmh 29.97 in1014.9 mb 0.00 in0.0 mm 0.00 in0.0 mm 0.20 in5.1 mm
06:06 PM 52.5°F11.4°C 44.1°F6.7°C 73% 10.1 mph SSW16.3 kmh SSW 17.0 mph27.4 kmh 29.97 in1014.9 mb 0.00 in0.0 mm 0.00 in0.0 mm 0.20 in5.1 mm
06:11 PM 52.3°F11.3°C 43.9°F6.6°C 73% 8.1 mph WSW13.0 kmh WSW 21.9 mph35.2 kmh 29.97 in1014.9 mb 0.00 in0.0 mm 0.00 in0.0 mm 0.20 in5.1 mm
06:16 PM 52.2°F11.2°C 43.3°F6.3°C 72% 8.9 mph SSW14.3 kmh SSW 19.0 mph30.6 kmh 29.97 in1014.9 mb 0.00 in0.0 mm 0.00 in0.0 mm 0.20 in5.1 mm
06:21 PM 52.2°F11.2°C 43.0°F6.1°C 71% 10.1 mph SW16.3 kmh SW 27.1 mph43.6 kmh 29.98 in1015.2 mb 0.00 in0.0 mm 0.00 in0.0 mm 0.20 in5.1 mm
06:26 PM 52.2°F11.2°C 43.0°F6.1°C 71% 12.1 mph SW19.5 kmh SW 21.0 mph33.8 kmh 29.98 in1015.2 mb 0.00 in0.0 mm 0.00 in0.0 mm 0.20 in5.1 mm
06:31 PM 52.0°F11.1°C 42.8°F6.0°C 71% 10.1 mph SW16.3 kmh SW 17.9 mph28.8 kmh 29.98 in1015.2 mb 0.00 in0.0 mm 0.00 in0.0 mm 0.20 in5.1 mm
06:36 PM 51.8°F11.0°C 42.6°F5.9°C 71% 10.1 mph SW16.3 kmh SW 19.0 mph30.6 kmh 29.98 in1015.2 mb 0.00 in0.0 mm 0.00 in0.0 mm 0.20 in5.1 mm
06:41 PM 51.6°F10.9°C 42.4°F5.8°C 71% 11.0 mph SW17.7 kmh SW 19.9 mph32.0 kmh 29.99 in1015.6 mb 0.00 in0.0 mm 0.00 in0.0 mm 0.20 in5.1 mm
06:46 PM 51.4°F10.8°C 43.2°F6.2°C 73% 8.9 mph SW14.3 kmh SW 15.0 mph24.1 kmh 29.99 in1015.6 mb 0.00 in0.0 mm 0.00 in0.0 mm 0.20 in5.1 mm
06:51 PM 51.3°F10.7°C 43.0°F6.1°C 73% 8.1 mph SW13.0 kmh SW 15.0 mph24.1 kmh 30.00 in1015.9 mb 0.00 in0.0 mm 0.00 in0.0 mm 0.20 in5.1 mm
06:56 PM 51.1°F10.6°C 42.8°F6.0°C 73% 8.9 mph SW14.3 kmh SW 21.9 mph35.2 kmh 30.00 in1015.9 mb 0.00 in0.0 mm 0.00 in0.0 mm 0.20 in5.1 mm
07:01 PM 51.1°F10.6°C 43.2°F6.2°C 74% 8.9 mph SSW14.3 kmh SSW 19.9 mph32.0 kmh 30.00 in1015.9 mb 0.00 in0.0 mm 0.00 in0.0 mm 0.20 in5.1 mm
07:06 PM 50.7°F10.4°C 43.2°F6.2°C 75% 8.1 mph SSW13.0 kmh SSW 12.1 mph19.5 kmh 30.01 in1016.3 mb 0.00 in0.0 mm 0.00 in0.0 mm 0.20 in5.1 mm
07:11 PM 50.7°F10.4°C 43.2°F6.2°C 75% 6.9 mph SSW11.1 kmh SSW 15.0 mph24.1 kmh 30.01 in1016.3 mb 0.00 in0.0 mm 0.00 in0.0 mm 0.20 in5.1 mm
07:16 PM 50.5°F10.3°C 43.0°F6.1°C 75% 8.1 mph WSW13.0 kmh WSW 15.0 mph24.1 kmh 30.01 in1016.3 mb 0.00 in0.0 mm 0.00 in0.0 mm 0.20 in5.1 mm
07:21 PM 50.5°F10.3°C 43.0°F6.1°C 75% 8.1 mph SSW13.0 kmh SSW 13.0 mph20.9 kmh 30.01 in1016.3 mb 0.00 in0.0 mm 0.00 in0.0 mm 0.20 in5.1 mm
07:26 PM 50.5°F10.3°C 43.0°F6.1°C 75% 8.1 mph SW13.0 kmh SW 17.9 mph28.8 kmh 30.02 in1016.6 mb 0.00 in0.0 mm 0.00 in0.0 mm 0.20 in5.1 mm
07:31 PM 50.5°F10.3°C 43.0°F6.1°C 75% 8.9 mph SW14.3 kmh SW 16.1 mph25.9 kmh 30.02 in1016.6 mb 0.00 in0.0 mm 0.00 in0.0 mm 0.20 in5.1 mm
07:36 PM 50.4°F10.2°C 43.3°F6.3°C 77% 8.9 mph SW14.3 kmh SW 15.0 mph24.1 kmh 30.02 in1016.6 mb 0.00 in0.0 mm 0.00 in0.0 mm 0.20 in5.1 mm
07:41 PM 50.2°F10.1°C 43.5°F6.4°C 78% 6.9 mph SW11.1 kmh SW 14.1 mph22.7 kmh 30.02 in1016.6 mb 0.00 in0.0 mm 0.00 in0.0 mm 0.20 in5.1 mm
07:46 PM 49.8°F9.9°C 43.2°F6.2°C 78% 6.9 mph SSW11.1 kmh SSW 13.0 mph20.9 kmh 30.03 in1016.9 mb 0.00 in0.0 mm 0.00 in0.0 mm 0.20 in5.1 mm
07:51 PM 50.0°F10.0°C 43.2°F6.2°C 77% 6.9 mph SW11.1 kmh SW 17.9 mph28.8 kmh 30.03 in1016.9 mb 0.00 in0.0 mm 0.00 in0.0 mm 0.20 in5.1 mm
07:56 PM 50.0°F10.0°C 43.2°F6.2°C 77% 8.1 mph SW13.0 kmh SW 15.0 mph24.1 kmh 30.03 in1016.9 mb 0.00 in0.0 mm 0.00 in0.0 mm 0.20 in5.1 mm
08:01 PM 50.0°F10.0°C 43.2°F6.2°C 77% 6.9 mph WSW11.1 kmh WSW 17.0 mph27.4 kmh 30.03 in1016.9 mb 0.00 in0.0 mm 0.00 in0.0 mm 0.20 in5.1 mm
08:06 PM 50.2°F10.1°C 43.0°F6.1°C 76% 8.9 mph SSW14.3 kmh SSW 17.9 mph28.8 kmh 30.03 in1016.9 mb 0.00 in0.0 mm 0.00 in0.0 mm 0.20 in5.1 mm
08:11 PM 50.2°F10.1°C 43.0°F6.1°C 76% 8.9 mph SW14.3 kmh SW 16.1 mph25.9 kmh 30.03 in1016.9 mb 0.00 in0.0 mm 0.00 in0.0 mm 0.20 in5.1 mm
08:16 PM 50.0°F10.0°C 42.8°F6.0°C 76% 8.9 mph SW14.3 kmh SW 16.1 mph25.9 kmh 30.04 in1017.3 mb 0.00 in0.0 mm 0.00 in0.0 mm 0.20 in5.1 mm
08:21 PM 49.8°F9.9°C 42.6°F5.9°C 76% 8.1 mph WSW13.0 kmh WSW 15.0 mph24.1 kmh 30.04 in1017.3 mb 0.00 in0.0 mm 0.00 in0.0 mm 0.20 in5.1 mm
08:26 PM 49.8°F9.9°C 42.6°F5.9°C 76% 8.1 mph SW13.0 kmh SW 15.0 mph24.1 kmh 30.04 in1017.3 mb 0.00 in0.0 mm 0.00 in0.0 mm 0.20 in5.1 mm
08:31 PM 49.6°F9.8°C 42.1°F5.6°C 75% 8.9 mph SW14.3 kmh SW 17.0 mph27.4 kmh 30.04 in1017.3 mb 0.00 in0.0 mm 0.00 in0.0 mm 0.20 in5.1 mm
08:36 PM 49.6°F9.8°C 42.4°F5.8°C 76% 8.9 mph SW14.3 kmh SW 14.1 mph22.7 kmh 30.04 in1017.3 mb 0.00 in0.0 mm 0.00 in0.0 mm 0.20 in5.1 mm
08:41 PM 49.6°F9.8°C 42.1°F5.6°C 75% 8.9 mph SW14.3 kmh SW 16.1 mph25.9 kmh 30.04 in1017.3 mb 0.00 in0.0 mm 0.00 in0.0 mm 0.20 in5.1 mm
08:46 PM 49.6°F9.8°C 42.4°F5.8°C 76% 8.1 mph SW13.0 kmh SW 17.0 mph27.4 kmh 30.04 in1017.3 mb 0.00 in0.0 mm 0.00 in0.0 mm 0.20 in5.1 mm
08:51 PM 49.6°F9.8°C 42.4°F5.8°C 76% 6.9 mph WSW11.1 kmh WSW 19.0 mph30.6 kmh 30.04 in1017.3 mb 0.00 in0.0 mm 0.00 in0.0 mm 0.20 in5.1 mm
08:56 PM 49.6°F9.8°C 42.4°F5.8°C 76% 8.1 mph SW13.0 kmh SW 23.0 mph37.0 kmh 30.05 in1017.6 mb 0.00 in0.0 mm 0.00 in0.0 mm 0.20 in5.1 mm
09:01 PM 49.6°F9.8°C 42.4°F5.8°C 76% 8.1 mph SW13.0 kmh SW 14.1 mph22.7 kmh 30.05 in1017.6 mb 0.00 in0.0 mm 0.00 in0.0 mm 0.20 in5.1 mm
09:06 PM 49.5°F9.7°C 42.3°F5.7°C 76% 8.1 mph SW13.0 kmh SW 16.1 mph25.9 kmh 30.05 in1017.6 mb 0.00 in0.0 mm 0.00 in0.0 mm 0.20 in5.1 mm
09:11 PM 49.3°F9.6°C 42.1°F5.6°C 76% 8.1 mph SSW13.0 kmh SSW 17.9 mph28.8 kmh 30.05 in1017.6 mb 0.00 in0.0 mm 0.00 in0.0 mm 0.20 in5.1 mm
09:16 PM 49.3°F9.6°C 42.1°F5.6°C 76% 8.9 mph SW14.3 kmh SW 19.9 mph32.0 kmh 30.05 in1017.6 mb 0.00 in0.0 mm 0.00 in0.0 mm 0.20 in5.1 mm
09:21 PM 49.5°F9.7°C 42.3°F5.7°C 76% 8.9 mph S14.3 kmh S 15.0 mph24.1 kmh 30.06 in1017.9 mb 0.00 in0.0 mm 0.00 in0.0 mm 0.20 in5.1 mm
09:26 PM 49.5°F9.7°C 42.3°F5.7°C 76% 8.9 mph WSW14.3 kmh WSW 19.9 mph32.0 kmh 30.06 in1017.9 mb 0.00 in0.0 mm 0.00 in0.0 mm 0.20 in5.1 mm
09:31 PM 49.5°F9.7°C 42.3°F5.7°C 76% 8.9 mph SW14.3 kmh SW 16.1 mph25.9 kmh 30.06 in1017.9 mb 0.00 in0.0 mm 0.00 in0.0 mm 0.20 in5.1 mm
09:36 PM 49.5°F9.7°C 41.9°F5.5°C 75% 8.1 mph SW13.0 kmh SW 17.0 mph27.4 kmh 30.06 in1017.9 mb 0.00 in0.0 mm 0.00 in0.0 mm 0.20 in5.1 mm
09:41 PM 49.5°F9.7°C 42.3°F5.7°C 76% 8.9 mph SSW14.3 kmh SSW 17.9 mph28.8 kmh 30.06 in1017.9 mb 0.00 in0.0 mm 0.00 in0.0 mm 0.20 in5.1 mm
09:46 PM 49.5°F9.7°C 42.3°F5.7°C 76% 8.1 mph SW13.0 kmh SW 17.0 mph27.4 kmh 30.05 in1017.6 mb 0.00 in0.0 mm 0.00 in0.0 mm 0.20 in5.1 mm
09:51 PM 49.5°F9.7°C 42.3°F5.7°C 76% 6.9 mph SSW11.1 kmh SSW 16.1 mph25.9 kmh 30.06 in1017.9 mb 0.00 in0.0 mm 0.00 in0.0 mm 0.20 in5.1 mm
09:56 PM 49.5°F9.7°C 42.6°F5.9°C 77% 8.1 mph SW13.0 kmh SW 15.0 mph24.1 kmh 30.06 in1017.9 mb 0.00 in0.0 mm 0.00 in0.0 mm 0.20 in5.1 mm
10:01 PM 49.1°F9.5°C 42.8°F6.0°C 79% 6.9 mph SW11.1 kmh SW 17.9 mph28.8 kmh 30.06 in1017.9 mb 0.00 in0.0 mm 0.00 in0.0 mm 0.20 in5.1 mm
10:06 PM 48.9°F9.4°C 42.6°F5.9°C 79% 6.9 mph SW11.1 kmh SW 19.0 mph30.6 kmh 30.06 in1017.9 mb 0.00 in0.0 mm 0.00 in0.0 mm 0.20 in5.1 mm
10:11 PM 48.7°F9.3°C 42.8°F6.0°C 80% 8.1 mph WSW13.0 kmh WSW 17.9 mph28.8 kmh 30.06 in1017.9 mb 0.00 in0.0 mm 0.00 in0.0 mm 0.20 in5.1 mm
10:16 PM 48.6°F9.2°C 43.0°F6.1°C 81% 8.1 mph SW13.0 kmh SW 19.0 mph30.6 kmh 30.06 in1017.9 mb 0.00 in0.0 mm 0.00 in0.0 mm 0.20 in5.1 mm
10:21 PM 48.4°F9.1°C 43.2°F6.2°C 82% 8.9 mph SW14.3 kmh SW 17.0 mph27.4 kmh 30.06 in1017.9 mb 0.00 in0.0 mm 0.00 in0.0 mm 0.20 in5.1 mm
10:26 PM 48.4°F9.1°C 43.2°F6.2°C 82% 6.9 mph SW11.1 kmh SW 12.1 mph19.5 kmh 30.06 in1017.9 mb 0.00 in0.0 mm 0.00 in0.0 mm 0.20 in5.1 mm
10:31 PM 48.2°F9.0°C 43.0°F6.1°C 82% 6.0 mph SW9.7 kmh SW 12.1 mph19.5 kmh 30.07 in1018.3 mb 0.01 in0.3 mm 0.12 in3.0 mm 0.21 in5.3 mm
10:36 PM 48.4°F9.1°C 43.2°F6.2°C 82% 6.9 mph SW11.1 kmh SW 17.9 mph28.8 kmh 30.06 in1017.9 mb 0.01 in0.3 mm 0.00 in0.0 mm 0.21 in5.3 mm
10:41 PM 48.4°F9.1°C 43.2°F6.2°C 82% 6.9 mph SW11.1 kmh SW 16.1 mph25.9 kmh 30.06 in1017.9 mb 0.01 in0.3 mm 0.00 in0.0 mm 0.21 in5.3 mm
10:46 PM 48.6°F9.2°C 43.0°F6.1°C 81% 6.0 mph SW9.7 kmh SW 14.1 mph22.7 kmh 30.06 in1017.9 mb 0.01 in0.3 mm 0.00 in0.0 mm 0.21 in5.3 mm
10:51 PM 48.6°F9.2°C 43.0°F6.1°C 81% 6.9 mph SW11.1 kmh SW 16.1 mph25.9 kmh 30.06 in1017.9 mb 0.01 in0.3 mm 0.00 in0.0 mm 0.21 in5.3 mm
11:01 PM 48.6°F9.2°C 43.3°F6.3°C 82% 6.9 mph SW11.1 kmh SW 13.0 mph20.9 kmh 30.07 in1018.3 mb 0.01 in0.3 mm 0.00 in0.0 mm 0.21 in5.3 mm
11:06 PM 48.6°F9.2°C 43.7°F6.5°C 83% 6.0 mph SSW9.7 kmh SSW 16.1 mph25.9 kmh 30.06 in1017.9 mb 0.01 in0.3 mm 0.00 in0.0 mm 0.21 in5.3 mm
11:11 PM 48.4°F9.1°C 43.5°F6.4°C 83% 8.1 mph SSW13.0 kmh SSW 19.9 mph32.0 kmh 30.06 in1017.9 mb 0.01 in0.3 mm 0.00 in0.0 mm 0.21 in5.3 mm
11:16 PM 48.6°F9.2°C 43.7°F6.5°C 83% 8.9 mph S14.3 kmh S 21.9 mph35.2 kmh 30.06 in1017.9 mb 0.01 in0.3 mm 0.00 in0.0 mm 0.21 in5.3 mm
11:21 PM 48.6°F9.2°C 43.7°F6.5°C 83% 8.1 mph SW13.0 kmh SW 14.1 mph22.7 kmh 30.06 in1017.9 mb 0.01 in0.3 mm 0.00 in0.0 mm 0.21 in5.3 mm
11:26 PM 48.6°F9.2°C 43.7°F6.5°C 83% 8.1 mph SW13.0 kmh SW 17.9 mph28.8 kmh 30.06 in1017.9 mb 0.01 in0.3 mm 0.00 in0.0 mm 0.21 in5.3 mm
11:31 PM 48.6°F9.2°C 43.7°F6.5°C 83% 8.9 mph SW14.3 kmh SW 17.0 mph27.4 kmh 30.06 in1017.9 mb 0.00 in0.0 mm 0.00 in0.0 mm 0.21 in5.3 mm
11:36 PM 48.6°F9.2°C 43.7°F6.5°C 83% 8.9 mph SSW14.3 kmh SSW 19.0 mph30.6 kmh 30.06 in1017.9 mb 0.00 in0.0 mm 0.00 in0.0 mm 0.21 in5.3 mm
11:41 PM 48.4°F9.1°C 43.5°F6.4°C 83% 8.9 mph SW14.3 kmh SW 19.9 mph32.0 kmh 30.06 in1017.9 mb 0.00 in0.0 mm 0.00 in0.0 mm 0.21 in5.3 mm
11:46 PM 48.4°F9.1°C 43.7°F6.5°C 84% 8.9 mph SW14.3 kmh SW 17.0 mph27.4 kmh 30.06 in1017.9 mb 0.00 in0.0 mm 0.00 in0.0 mm 0.21 in5.3 mm
11:51 PM 48.2°F9.0°C 43.9°F6.6°C 85% 10.1 mph SW16.3 kmh SW 17.9 mph28.8 kmh 30.06 in1017.9 mb 0.00 in0.0 mm 0.00 in0.0 mm 0.21 in5.3 mm
11:56 PM 47.8°F8.8°C 43.9°F6.6°C 86% 10.1 mph SW16.3 kmh SW 21.0 mph33.8 kmh 30.07 in1018.3 mb 0.00 in0.0 mm 0.00 in0.0 mm 0.21 in5.3 mm